Time;durP1;ratioP1;P1;durP2;ratioP2;P2;SDS_P1;SDS_P2;PMS_P1;PMS_P2;Temp;Humidity;BMP_temperature;BMP_pressure;BME280_temperature;BME280_humidity;BME280_pressure;Samples;Min_cycle;Max_cycle;Signal;HPM_P1;HPM_P2
2023/03/05 00:00:39;;;;;;;47.50;24.90;;;;;;;;;;2553001;23;20002;-91
2023/03/05 00:01:39;;;;;;;;;;;;;;;;;;2560259;23;20024;-92
2023/03/05 00:02:40;;;;;;;53.28;26.88;;;;;;;;;;2555226;23;19912;-91
2023/03/05 00:03:40;;;;;;;;;;;;;;;;;;2543705;23;20005;-91
2023/03/05 00:04:41;;;;;;;49.10;25.60;;;;;;;;;;2555251;23;19904;-91
2023/03/05 00:05:44;;;;;;;;;;;;;;;;;;2543561;23;20117;-91
2023/03/05 00:06:44;;;;;;;47.58;25.08;;;;;;;;;;2543122;23;20007;-91
2023/03/05 00:07:45;;;;;;;;;;;;;;;;;;2542988;23;20566;-90
2023/03/05 00:08:47;;;;;;;49.83;25.10;;;;;;;;;;2542761;23;20331;-90
2023/03/05 00:09:49;;;;;;;49.60;26.33;;;;;;;;;;2542683;23;20053;-91
2023/03/05 00:11:11;;;;;;;49.17;25.50;;;;;;;;;;2543052;23;20319;-90
2023/03/05 00:12:11;;;;;;;47.83;25.70;;;;;;;;;;2546857;23;20054;-90
2023/03/05 00:13:11;;;;;;;;;;;;;;;;;;2559685;23;20528;-91
2023/03/05 00:14:12;;;;;;;46.63;25.40;;;;;;;;;;2572409;23;20197;-90
2023/03/05 00:15:12;;;;;;;50.28;24.95;;;;;;;;;;2555056;23;20079;-90
2023/03/05 00:16:14;;;;;;;;;;;;;;;;;;2543048;23;19997;-91
2023/03/05 00:17:14;;;;;;;44.42;24.40;;;;;;;;;;2542614;23;19905;-90
2023/03/05 00:18:14;;;;;;;;;;;;;;;;;;2559152;23;19997;-90
2023/03/05 00:19:17;;;;;;;42.42;23.63;;;;;;;;;;2554898;23;19983;-90
2023/03/05 00:20:18;;;;;;;43.65;22.80;;;;;;;;;;2559267;23;20021;-90
2023/03/05 00:21:27;;;;;;;41.33;22.63;;;;;;;;;;2138408;23;10001168;-90
2023/03/05 00:22:27;;;;;;;40.83;23.23;;;;;;;;;;2554647;23;19996;-90
2023/03/05 00:23:27;;;;;;;;;;;;;;;;;;2559752;23;20000;-91
2023/03/05 00:24:29;;;;;;;44.38;24.00;;;;;;;;;;2554727;23;20301;-90
2023/03/05 00:25:29;;;;;;;42.88;23.83;;;;;;;;;;2558934;23;20083;-90
2023/03/05 00:26:33;;;;;;;;;;;;;;;;;;2554955;23;20493;-90
2023/03/05 00:27:34;;;;;;;47.47;26.08;;;;;;;;;;2554873;23;20377;-90
2023/03/05 00:28:34;;;;;;;;;;;;;;;;;;2559325;23;19997;-90
2023/03/05 00:29:34;;;;;;;46.50;25.53;;;;;;;;;;2554524;23;19974;-90
2023/03/05 00:30:35;;;;;;;;;;;;;;;;;;2542866;23;20388;-90
2023/03/05 00:31:36;;;;;;;46.75;26.10;;;;;;;;;;2542569;23;19933;-90
2023/03/05 00:32:36;;;;;;;48.28;25.42;;;;;;;;;;2554488;23;20004;-91
2023/03/05 00:33:37;;;;;;;;;;;;;;;;;;2542989;23;19989;-91
2023/03/05 00:34:37;;;;;;;46.03;24.43;;;;;;;;;;2119161;23;10259898;-90
2023/03/05 00:35:46;;;;;;;39.63;22.85;;;;;;;;;;2555040;23;20537;-90
2023/03/05 00:36:51;;;;;;;45.72;23.25;;;;;;;;;;2560763;23;20002;-91
2023/03/05 00:37:52;;;;;;;44.20;24.00;;;;;;;;;;2572059;23;20058;-90
2023/03/05 00:38:53;;;;;;;41.85;24.85;;;;;;;;;;2554438;23;19993;-90
2023/03/05 00:39:53;;;;;;;;;;;;;;;;;;2559498;23;20005;-90
2023/03/05 00:40:53;;;;;;;50.73;25.43;;;;;;;;;;2554589;23;19959;-90
2023/03/05 00:41:53;;;;;;;;;;;;;;;;;;2542876;23;20439;-89
2023/03/05 00:42:54;;;;;;;54.20;27.65;;;;;;;;;;2558654;23;19995;-90
2023/03/05 00:43:54;;;;;;;55.63;28.67;;;;;;;;;;2554504;23;19997;-89
2023/03/05 00:44:55;;;;;;;;;;;;;;;;;;2559634;23;20103;-92
2023/03/05 00:45:55;;;;;;;52.70;28.20;;;;;;;;;;2554525;23;19916;-91
2023/03/05 00:46:55;;;;;;;;;;;;;;;;;;2543239;23;19997;-91
2023/03/05 00:47:56;;;;;;;48.45;26.77;;;;;;;;;;2542758;23;19920;-91
2023/03/05 00:48:57;;;;;;;;;;;;;;;;;;2543639;23;20481;-92
2023/03/05 00:49:57;;;;;;;49.43;26.03;;;;;;;;;;2543344;23;19909;-91
2023/03/05 00:50:57;;;;;;;;;;;;;;;;;;2555360;23;20504;-90
2023/03/05 00:51:58;;;;;;;50.30;26.23;;;;;;;;;;2542362;23;20302;-90
2023/03/05 00:52:58;;;;;;;;;;;;;;;;;;2542690;23;20001;-91
2023/03/05 00:53:58;;;;;;;52.88;26.50;;;;;;;;;;2561518;23;19932;-91
2023/03/05 00:54:59;;;;;;;48.67;25.52;;;;;;;;;;2564331;23;20008;-91
2023/03/05 00:55:59;;;;;;;46.78;24.48;;;;;;;;;;2552652;23;20094;-91
2023/03/05 00:56:59;;;;;;;;;;;;;;;;;;2555659;23;20103;-91
2023/03/05 00:58:00;;;;;;;48.87;25.47;;;;;;;;;;2543058;23;19916;-90
2023/03/05 00:59:01;;;;;;;43.80;23.77;;;;;;;;;;2555278;23;20004;-91
2023/03/05 01:00:01;;;;;;;;;;;;;;;;;;2543539;23;20024;-91
2023/03/05 01:01:03;;;;;;;44.53;24.67;;;;;;;;;;2554995;23;19958;-91
2023/03/05 01:02:03;;;;;;;45.92;24.00;;;;;;;;;;2542816;23;20021;-91
2023/03/05 01:03:03;;;;;;;;;;;;;;;;;;2543203;23;20001;-91
2023/03/05 01:04:04;;;;;;;43.47;24.93;;;;;;;;;;2542602;23;19959;-91
2023/03/05 01:05:05;;;;;;;;;;;;;;;;;;2555353;23;20157;-91
2023/03/05 01:06:08;;;;;;;43.33;23.10;;;;;;;;;;2542656;23;19967;-91
2023/03/05 01:07:08;;;;;;;44.60;25.48;;;;;;;;;;2543223;23;20048;-90
2023/03/05 01:08:09;;;;;;;;;;;;;;;;;;2559740;23;20048;-91
2023/03/05 01:09:09;;;;;;;45.53;24.92;;;;;;;;;;2554976;23;19911;-91
2023/03/05 01:10:10;;;;;;;;;;;;;;;;;;2555676;23;20013;-90
2023/03/05 01:11:10;;;;;;;48.07;24.77;;;;;;;;;;2542650;23;19928;-90
2023/03/05 01:12:11;;;;;;;43.20;23.83;;;;;;;;;;2554778;23;20028;-90
2023/03/05 01:13:11;;;;;;;;;;;;;;;;;;2543417;23;20005;-91
2023/03/05 01:14:12;;;;;;;48.00;24.98;;;;;;;;;;2543167;23;19927;-90
2023/03/05 01:15:12;;;;;;;;;;;;;;;;;;2555861;23;20001;-90
2023/03/05 01:16:13;;;;;;;44.87;24.13;;;;;;;;;;2555555;23;19927;-91
2023/03/05 01:17:13;;;;;;;;;;;;;;;;;;2543449;23;20005;-91
2023/03/05 01:18:13;;;;;;;46.13;24.27;;;;;;;;;;2533659;23;19994;-90
2023/03/05 01:19:15;;;;;;;;;;;;;;;;;;2543307;23;19997;-90
2023/03/05 01:20:17;;;;;;;48.60;24.40;;;;;;;;;;2542814;23;19905;-90
2023/03/05 01:21:18;;;;;;;45.22;24.02;;;;;;;;;;2543101;23;20005;-91
2023/03/05 01:22:18;;;;;;;;;;;;;;;;;;2555346;23;20809;-92
2023/03/05 01:23:19;;;;;;;44.97;24.43;;;;;;;;;;2555309;23;19965;-90
2023/03/05 01:24:20;;;;;;;45.40;24.67;;;;;;;;;;2559266;23;19997;-90
2023/03/05 01:25:20;;;;;;;42.20;23.67;;;;;;;;;;2131111;23;10246467;-91
2023/03/05 01:26:21;;;;;;;;;;;;;;;;;;2572818;23;20258;-90
2023/03/05 01:27:22;;;;;;;50.17;27.17;;;;;;;;;;2559356;23;20336;-90
2023/03/05 01:28:22;;;;;;;54.83;28.52;;;;;;;;;;2567800;23;19989;-89
2023/03/05 01:29:23;;;;;;;;;;;;;;;;;;2584715;23;20000;-91
2023/03/05 01:30:23;;;;;;;51.60;27.57;;;;;;;;;;2567708;23;19904;-89
2023/03/05 01:31:25;;;;;;;;;;;;;;;;;;2567784;23;20031;-90
2023/03/05 01:32:25;;;;;;;52.28;25.52;;;;;;;;;;2554855;23;19908;-90
2023/03/05 01:33:26;;;;;;;;;;;;;;;;;;2555328;23;20405;-90
2023/03/05 01:34:26;;;;;;;52.67;27.27;;;;;;;;;;2554808;23;20269;-90
2023/03/05 01:35:27;;;;;;;;;;;;;;;;;;2572121;23;20030;-91
2023/03/05 01:36:27;;;;;;;56.53;29.63;;;;;;;;;;2567350;23;19938;-90
2023/03/05 01:37:27;;;;;;;;;;;;;;;;;;2572228;23;19989;-89
2023/03/05 01:38:28;;;;;;;57.22;28.38;;;;;;;;;;2572440;23;19994;-92
2023/03/05 01:39:28;;;;;;;;;;;;;;;;;;2555494;23;20044;-89
2023/03/05 01:40:30;;;;;;;53.73;29.37;;;;;;;;;;2548002;23;19904;-90
2023/03/05 01:41:32;;;;;;;55.65;27.70;;;;;;;;;;2548717;23;20099;-91
2023/03/05 01:42:33;;;;;;;59.10;27.95;;;;;;;;;;2542992;23;19997;-90
2023/03/05 01:43:33;;;;;;;;;;;;;;;;;;2547661;23;19993;-90
2023/03/05 01:44:34;;;;;;;60.17;29.87;;;;;;;;;;2556210;23;19979;-91
2023/03/05 01:45:37;;;;;;;;;;;;;;;;;;2556850;23;20458;-89
2023/03/05 01:46:38;;;;;;;58.22;30.10;;;;;;;;;;2576216;22;19903;-91
2023/03/05 01:47:38;;;;;;;;;;;;;;;;;;2581233;22;20004;-90
2023/03/05 01:48:43;;;;;;;57.77;29.40;;;;;;;;;;2568457;22;19900;-91
2023/03/05 01:49:43;;;;;;;59.65;28.67;;;;;;;;;;2556068;23;20002;-89
2023/03/05 01:50:43;;;;;;;;;;;;;;;;;;2569073;23;20004;-89
2023/03/05 01:51:49;;;;;;;60.40;32.17;;;;;;;;;;2571039;23;19904;-91
2023/03/05 01:53:02;;;;;;;60.70;29.55;;;;;;;;;;2556013;23;20430;-90
2023/03/05 01:54:05;;;;;;;60.17;28.98;;;;;;;;;;2558939;23;20084;-90
2023/03/05 01:55:15;;;;;;;54.72;28.52;;;;;;;;;;2556496;23;20008;-90
2023/03/05 01:56:16;;;;;;;56.13;30.13;;;;;;;;;;2555978;23;19996;-92
2023/03/05 01:57:21;;;;;;;;;;;;;;;;;;2556083;23;19997;-91
2023/03/05 01:58:23;;;;;;;59.03;29.58;;;;;;;;;;2555466;23;19915;-91
2023/03/05 01:59:25;;;;;;;59.30;28.30;;;;;;;;;;2560345;23;20363;-90
2023/03/05 02:00:51;;;;;;;57.22;27.05;;;;;;;;;;2262145;23;10001683;-91
2023/03/05 02:01:54;;;;;;;59.60;29.17;;;;;;;;;;2564801;23;20613;-91
2023/03/05 02:03:00;;;;;;;58.22;29.05;;;;;;;;;;2568536;23;20019;-91
2023/03/05 02:04:01;;;;;;;60.67;28.38;;;;;;;;;;2556903;23;20075;-89
2023/03/05 02:05:03;;;;;;;;;;;;;;;;;;2556079;23;20079;-90
2023/03/05 02:06:04;;;;;;;60.45;28.52;;;;;;;;;;2567913;23;19904;-90
2023/03/05 02:07:04;;;;;;;;;;;;;;;;;;2561266;23;20009;-91
2023/03/05 02:08:10;;;;;;;62.00;31.20;;;;;;;;;;2584454;22;19911;-92
2023/03/05 02:09:10;;;;;;;60.72;29.83;;;;;;;;;;2580367;22;20060;-91
2023/03/05 02:10:18;;;;;;;;;;;;;;;;;;2579051;22;20003;-90
2023/03/05 02:11:19;;;;;;;62.92;32.10;;;;;;;;;;2579988;22;19904;-91
2023/03/05 02:12:19;;;;;;;;;;;;;;;;;;2562516;23;20046;-91
2023/03/05 02:13:23;;;;;;;60.50;31.67;;;;;;;;;;2555340;23;19915;-91
2023/03/05 02:14:24;;;;;;;62.13;29.33;;;;;;;;;;2568675;23;19989;-92
2023/03/05 02:15:25;;;;;;;56.75;29.83;;;;;;;;;;2555645;23;20276;-91
2023/03/05 02:16:34;;;;;;;;;;;;;;;;;;2568492;23;19989;-91
2023/03/05 02:17:34;;;;;;;56.75;28.73;;;;;;;;;;2572130;23;20002;-91
2023/03/05 02:18:35;;;;;;;;;;;;;;;;;;2572586;23;20060;-91
2023/03/05 02:19:56;;;;;;;59.97;29.60;;;;;;;;;;2567711;23;19962;-91
2023/03/05 02:20:56;;;;;;;49.83;27.20;;;;;;;;;;2559434;23;20041;-91
2023/03/05 02:21:56;;;;;;;;;;;;;;;;;;2568512;23;20001;-91
2023/03/05 02:22:58;;;;;;;53.90;27.20;;;;;;;;;;2572461;23;20293;-91
2023/03/05 02:23:59;;;;;;;50.47;26.65;;;;;;;;;;2572778;23;20080;-90
2023/03/05 02:24:59;;;;;;;;;;;;;;;;;;2573324;23;20619;-89
2023/03/05 02:26:00;;;;;;;46.93;26.83;;;;;;;;;;2572753;23;19914;-91
2023/03/05 02:27:02;;;;;;;51.95;26.52;;;;;;;;;;2568213;23;20000;-90
2023/03/05 02:28:26;;;;;;;48.20;25.35;;;;;;;;;;2555319;23;20001;-91
2023/03/05 02:29:29;;;;;;;47.97;26.02;;;;;;;;;;2555659;23;19999;-91
2023/03/05 02:30:30;;;;;;;51.00;24.70;;;;;;;;;;2543543;23;19993;-90
2023/03/05 02:31:30;;;;;;;;;;;;;;;;;;2543457;23;20333;-91
2023/03/05 02:32:31;;;;;;;46.63;23.63;;;;;;;;;;2555393;23;19911;-91
2023/03/05 02:33:31;;;;;;;;;;;;;;;;;;2543587;23;20496;-91
2023/03/05 02:34:31;;;;;;;47.27;24.93;;;;;;;;;;2555215;23;20342;-91
2023/03/05 02:35:32;;;;;;;;;;;;;;;;;;2554863;23;20077;-90
2023/03/05 02:36:32;;;;;;;43.77;25.23;;;;;;;;;;2571953;23;19911;-91
2023/03/05 02:37:33;;;;;;;;;;;;;;;;;;2568695;23;19997;-91
2023/03/05 02:38:36;;;;;;;45.90;25.03;;;;;;;;;;2567766;23;19908;-90
2023/03/05 02:39:37;;;;;;;49.03;25.33;;;;;;;;;;2572136;23;20012;-91
2023/03/05 02:40:37;;;;;;;;;;;;;;;;;;2556225;23;19996;-91
2023/03/05 02:41:38;;;;;;;48.28;23.95;;;;;;;;;;2101869;23;10400468;-92
2023/03/05 02:42:38;;;;;;;48.63;24.75;;;;;;;;;;2543088;23;20081;-91
2023/03/05 02:43:39;;;;;;;;;;;;;;;;;;2544081;23;20410;-91
2023/03/05 02:44:39;;;;;;;44.47;23.67;;;;;;;;;;2556540;23;19944;-89
2023/03/05 02:45:40;;;;;;;43.55;24.27;;;;;;;;;;2564570;23;20081;-92
2023/03/05 02:46:40;;;;;;;;;;;;;;;;;;2555611;23;20095;-92
2023/03/05 02:47:41;;;;;;;46.37;24.03;;;;;;;;;;2545889;23;19912;-92
2023/03/05 02:48:41;;;;;;;;;;;;;;;;;;2568879;23;20076;-91
2023/03/05 02:49:41;;;;;;;47.80;25.60;;;;;;;;;;2567988;23;20270;-91
2023/03/05 02:50:43;;;;;;;44.38;24.40;;;;;;;;;;2555336;23;20092;-91
2023/03/05 02:51:43;;;;;;;45.47;23.98;;;;;;;;;;2567678;23;20075;-90
2023/03/05 02:52:44;;;;;;;;;;;;;;;;;;2555869;23;20031;-91
2023/03/05 02:53:44;;;;;;;45.80;24.13;;;;;;;;;;2567626;23;19911;-91
2023/03/05 02:54:45;;;;;;;42.25;24.15;;;;;;;;;;2567324;23;20079;-91
2023/03/05 02:55:46;;;;;;;;;;;;;;;;;;2555814;23;20036;-91
2023/03/05 02:56:46;;;;;;;45.33;24.80;;;;;;;;;;2555150;23;19911;-92
2023/03/05 02:57:47;;;;;;;;;;;;;;;;;;2568432;23;19993;-90
2023/03/05 02:58:48;;;;;;;46.40;26.57;;;;;;;;;;2567653;23;19995;-90
2023/03/05 02:59:48;;;;;;;45.90;23.73;;;;;;;;;;2556320;23;20080;-92
2023/03/05 03:00:49;;;;;;;;;;;;;;;;;;2569158;23;20445;-90
2023/03/05 03:01:49;;;;;;;45.70;24.08;;;;;;;;;;2568406;23;19951;-91
2023/03/05 03:02:49;;;;;;;47.35;23.13;;;;;;;;;;2135441;23;10089605;-91
2023/03/05 03:03:50;;;;;;;47.70;25.00;;;;;;;;;;2555667;23;19997;-91
2023/03/05 03:04:50;;;;;;;;;;;;;;;;;;2572701;23;20036;-91
2023/03/05 03:05:51;;;;;;;48.85;25.48;;;;;;;;;;2567393;23;19915;-92
2023/03/05 03:06:51;;;;;;;45.65;24.70;;;;;;;;;;2567884;23;20022;-91
2023/03/05 03:07:51;;;;;;;;;;;;;;;;;;2555819;23;19997;-91
2023/03/05 03:08:52;;;;;;;45.47;23.83;;;;;;;;;;2555278;23;19994;-91
2023/03/05 03:09:52;;;;;;;;;;;;;;;;;;2572654;23;19996;-91
2023/03/05 03:10:55;;;;;;;46.10;25.40;;;;;;;;;;2580148;23;19903;-91
2023/03/05 03:11:55;;;;;;;46.45;23.38;;;;;;;;;;2584211;23;20075;-91
2023/03/05 03:12:56;;;;;;;;;;;;;;;;;;2568042;23;20071;-91
2023/03/05 03:13:56;;;;;;;39.50;22.30;;;;;;;;;;2555571;23;19904;-91
2023/03/05 03:14:56;;;;;;;;;;;;;;;;;;2543602;23;19997;-91
2023/03/05 03:16:05;;;;;;;40.53;22.92;;;;;;;;;;2543004;23;19909;-91
2023/03/05 03:17:12;;;;;;;37.22;21.77;;;;;;;;;;2550338;23;20001;-92
2023/03/05 03:18:12;;;;;;;39.45;22.38;;;;;;;;;;2567270;23;20369;-91
2023/03/05 03:19:13;;;;;;;;;;;;;;;;;;2136326;23;10078143;-92
2023/03/05 03:20:16;;;;;;;42.53;22.88;;;;;;;;;;2555091;23;19911;-91
2023/03/05 03:21:19;;;;;;;38.85;22.83;;;;;;;;;;2567720;23;20296;-91
2023/03/05 03:22:20;;;;;;;38.58;21.70;;;;;;;;;;2555796;23;20004;-91
2023/03/05 03:23:20;;;;;;;;;;;;;;;;;;2556009;23;19993;-90
2023/03/05 03:24:22;;;;;;;40.83;22.95;;;;;;;;;;2571352;23;19908;-91
2023/03/05 03:25:22;;;;;;;40.38;23.55;;;;;;;;;;2567614;23;20348;-91
2023/03/05 03:26:23;;;;;;;;;;;;;;;;;;2555617;23;20024;-91
2023/03/05 03:27:23;;;;;;;41.53;23.05;;;;;;;;;;2555414;23;19904;-91
2023/03/05 03:28:24;;;;;;;41.40;23.65;;;;;;;;;;2567935;23;19988;-91
2023/03/05 03:29:24;;;;;;;;;;;;;;;;;;2585263;23;19988;-91
2023/03/05 03:30:24;;;;;;;41.17;23.63;;;;;;;;;;2569693;23;19947;-91
2023/03/05 03:31:25;;;;;;;;;;;;;;;;;;2572742;23;20027;-92
2023/03/05 03:32:25;;;;;;;42.75;24.42;;;;;;;;;;2568622;23;19958;-92
2023/03/05 03:33:25;;;;;;;;;;;;;;;;;;2556380;23;20438;-93
2023/03/05 03:34:27;;;;;;;44.50;23.65;;;;;;;;;;2572462;23;20355;-91
2023/03/05 03:35:27;;;;;;;41.20;22.58;;;;;;;;;;2568279;23;20524;-90
2023/03/05 03:36:27;;;;;;;;;;;;;;;;;;2574031;23;20000;-91
2023/03/05 03:37:28;;;;;;;45.55;23.90;;;;;;;;;;2574125;23;19919;-91
2023/03/05 03:38:28;;;;;;;;;;;;;;;;;;2574207;23;20079;-92
2023/03/05 03:39:29;;;;;;;38.07;21.83;;;;;;;;;;2555585;23;19975;-92
2023/03/05 03:40:30;;;;;;;40.50;21.55;;;;;;;;;;2560489;23;20052;-91
2023/03/05 03:41:31;;;;;;;;;;;;;;;;;;2566932;23;20001;-92
2023/03/05 03:42:32;;;;;;;43.35;23.58;;;;;;;;;;2563381;23;19912;-91
2023/03/05 03:43:34;;;;;;;37.67;21.60;;;;;;;;;;2560326;23;19996;-91
2023/03/05 03:44:35;;;;;;;40.70;20.63;;;;;;;;;;2568560;23;19992;-91
2023/03/05 03:45:38;;;;;;;;;;;;;;;;;;2556548;23;20050;-92
2023/03/05 03:46:39;;;;;;;37.10;20.50;;;;;;;;;;2555884;23;19928;-91
2023/03/05 03:47:40;;;;;;;;;;;;;;;;;;2560452;23;19993;-92
2023/03/05 03:48:42;;;;;;;40.90;22.40;;;;;;;;;;2573234;23;20265;-93
2023/03/05 03:49:43;;;;;;;40.85;21.98;;;;;;;;;;2556308;23;19993;-92
2023/03/05 03:50:43;;;;;;;;;;;;;;;;;;2543620;23;20035;-92
2023/03/05 03:51:44;;;;;;;52.70;30.37;;;;;;;;;;2543674;23;19904;-92
2023/03/05 03:52:45;;;;;;;50.60;27.20;;;;;;;;;;2543836;23;20005;-93
2023/03/05 03:53:45;;;;;;;;;;;;;;;;;;2556620;23;20004;-90
2023/03/05 03:54:45;;;;;;;55.80;29.40;;;;;;;;;;2556345;23;19912;-93
2023/03/05 03:55:46;;;;;;;;;;;;;;;;;;2556713;23;20044;-93
2023/03/05 03:56:47;;;;;;;44.00;25.40;;;;;;;;;;2543664;23;19983;-93
2023/03/05 03:57:47;;;;;;;;;;;;;;;;;;2544261;23;20001;-93
2023/03/05 03:58:52;;;;;;;46.70;25.20;;;;;;;;;;2544038;23;19916;-93
2023/03/05 03:59:52;;;;;;;52.67;28.10;;;;;;;;;;2545237;23;20002;-93
2023/03/05 04:00:53;;;;;;;;;;;;;;;;;;2544467;23;20021;-93
2023/03/05 04:01:53;;;;;;;58.00;26.03;;;;;;;;;;2555140;23;20198;-93
2023/03/05 04:02:54;;;;;;;49.72;25.20;;;;;;;;;;2559459;23;19981;-92
2023/03/05 04:03:54;;;;;;;;;;;;;;;;;;2544601;23;20081;-92
2023/03/05 04:04:54;;;;;;;47.90;24.35;;;;;;;;;;2555827;23;19904;-92
2023/03/05 04:05:55;;;;;;;41.63;23.20;;;;;;;;;;2555843;23;20004;-92
2023/03/05 04:06:55;;;;;;;;;;;;;;;;;;2544375;23;20032;-92
2023/03/05 04:07:57;;;;;;;41.90;21.58;;;;;;;;;;2560069;23;19930;-90
2023/03/05 04:08:57;;;;;;;38.25;22.38;;;;;;;;;;2543532;23;20424;-92
2023/03/05 04:09:58;;;;;;;;;;;;;;;;;;2532262;23;20028;-92
2023/03/05 04:11:00;;;;;;;39.23;22.87;;;;;;;;;;2555910;23;20365;-92
2023/03/05 04:12:01;;;;;;;39.85;22.08;;;;;;;;;;2543012;23;20401;-90
2023/03/05 04:13:01;;;;;;;;;;;;;;;;;;2555667;23;20013;-92
2023/03/05 04:14:02;;;;;;;40.67;21.67;;;;;;;;;;2543079;23;20296;-92
2023/03/05 04:15:06;;;;;;;44.60;24.52;;;;;;;;;;2559514;23;20410;-91
2023/03/05 04:16:07;;;;;;;46.72;26.00;;;;;;;;;;2567479;23;20000;-92
2023/03/05 04:17:07;;;;;;;;;;;;;;;;;;2555861;23;20001;-92
2023/03/05 04:18:08;;;;;;;45.70;24.13;;;;;;;;;;2543209;23;20512;-92
2023/03/05 04:19:09;;;;;;;45.42;25.98;;;;;;;;;;2555334;23;20580;-94
2023/03/05 04:20:09;;;;;;;;;;;;;;;;;;2559771;23;19997;-91
2023/03/05 04:21:10;;;;;;;43.47;25.53;;;;;;;;;;2554888;23;20276;-90
2023/03/05 04:22:11;;;;;;;;;;;;;;;;;;2556760;23;20380;-90
2023/03/05 04:23:12;;;;;;;44.00;22.85;;;;;;;;;;2544955;23;20309;-90
2023/03/05 04:24:12;;;;;;;;;;;;;;;;;;2556035;23;20078;-90
2023/03/05 04:25:12;;;;;;;42.73;23.93;;;;;;;;;;2558859;23;19931;-90
2023/03/05 04:26:13;;;;;;;43.25;24.25;;;;;;;;;;2573590;23;20432;-90
2023/03/05 04:27:13;;;;;;;45.42;24.17;;;;;;;;;;2572548;23;20072;-91
2023/03/05 04:28:14;;;;;;;40.70;24.00;;;;;;;;;;2568601;23;20027;-90
2023/03/05 04:29:15;;;;;;;43.72;25.08;;;;;;;;;;2572840;23;19997;-91
2023/03/05 04:30:15;;;;;;;;;;;;;;;;;;2562588;23;20482;-91
2023/03/05 04:31:16;;;;;;;42.70;23.77;;;;;;;;;;2567627;23;19903;-91
2023/03/05 04:32:21;;;;;;;43.10;24.38;;;;;;;;;;2571544;23;20441;-91
2023/03/05 04:33:22;;;;;;;45.35;23.58;;;;;;;;;;2572607;23;19989;-91
2023/03/05 04:34:22;;;;;;;;;;;;;;;;;;2568063;23;20092;-91
2023/03/05 04:35:23;;;;;;;43.37;25.43;;;;;;;;;;2554938;23;19931;-90
2023/03/05 04:36:23;;;;;;;;;;;;;;;;;;2566015;23;20037;-90
2023/03/05 04:37:27;;;;;;;47.17;23.95;;;;;;;;;;2566773;23;19918;-88
2023/03/05 04:38:28;;;;;;;44.67;25.65;;;;;;;;;;2565515;23;20005;-90
2023/03/05 04:39:29;;;;;;;;;;;;;;;;;;2555380;23;19992;-89
2023/03/05 04:40:30;;;;;;;43.08;23.77;;;;;;;;;;2561966;23;19904;-90
2023/03/05 04:41:30;;;;;;;49.35;25.17;;;;;;;;;;2138697;23;10000023;-90
2023/03/05 04:42:33;;;;;;;47.03;26.58;;;;;;;;;;2554761;23;20064;-90
2023/03/05 04:43:34;;;;;;;47.08;25.80;;;;;;;;;;2566809;23;20003;-90
2023/03/05 04:44:35;;;;;;;;;;;;;;;;;;2567675;23;20000;-90
2023/03/05 04:45:39;;;;;;;51.83;27.17;;;;;;;;;;2567073;23;20333;-90
2023/03/05 04:46:39;;;;;;;51.30;27.13;;;;;;;;;;2567140;23;19999;-90
2023/03/05 04:47:40;;;;;;;;;;;;;;;;;;2572110;23;20365;-89
2023/03/05 04:48:40;;;;;;;49.23;26.23;;;;;;;;;;2569674;23;20333;-90
2023/03/05 04:49:41;;;;;;;;;;;;;;;;;;2567572;23;20001;-90
2023/03/05 04:50:41;;;;;;;44.27;24.33;;;;;;;;;;2566943;23;20003;-89
2023/03/05 04:51:41;;;;;;;;;;;;;;;;;;2566099;23;20060;-90
2023/03/05 04:52:44;;;;;;;47.20;23.15;;;;;;;;;;2570356;23;19963;-91
2023/03/05 04:53:44;;;;;;;45.30;26.30;;;;;;;;;;2573779;23;20386;-89
2023/03/05 04:54:44;;;;;;;;;;;;;;;;;;2559349;23;20005;-90
2023/03/05 04:55:45;;;;;;;43.33;24.17;;;;;;;;;;2572131;23;19983;-89
2023/03/05 04:56:45;;;;;;;;;;;;;;;;;;2136845;23;10050783;-88
2023/03/05 04:57:45;;;;;;;43.23;23.43;;;;;;;;;;2567487;23;19955;-88
2023/03/05 04:58:46;;;;;;;;;;;;;;;;;;2567665;23;20016;-88
2023/03/05 04:59:47;;;;;;;43.13;25.40;;;;;;;;;;2566952;23;20313;-88
2023/03/05 05:00:47;;;;;;;;;;;;;;;;;;2555470;23;19997;-90
2023/03/05 05:01:47;;;;;;;46.77;25.87;;;;;;;;;;2555132;23;19951;-91
2023/03/05 05:02:49;;;;;;;;;;;;;;;;;;2572366;23;20019;-91
2023/03/05 05:03:49;;;;;;;46.65;25.98;;;;;;;;;;2572836;23;19908;-88
2023/03/05 05:04:52;;;;;;;;;;;;;;;;;;2573378;23;20139;-89
2023/03/05 05:05:55;;;;;;;47.58;27.67;;;;;;;;;;2555942;23;19908;-93
2023/03/05 05:06:56;;;;;;;49.97;31.33;;;;;;;;;;2542822;23;20019;-90
2023/03/05 05:07:57;;;;;;;54.33;29.90;;;;;;;;;;2554640;23;20001;-91
2023/03/05 05:08:57;;;;;;;;;;;;;;;;;;2558643;23;19993;-90
2023/03/05 05:09:58;;;;;;;55.00;30.30;;;;;;;;;;2579702;23;19903;-90
2023/03/05 05:10:59;;;;;;;;;;;;;;;;;;2580984;23;19997;-90
2023/03/05 05:11:59;;;;;;;68.20;31.27;;;;;;;;;;2560655;23;19904;-90
2023/03/05 05:15:20;;;;;;;44.65;28.55;;;;;;;;;;2561161;23;20047;-89
2023/03/05 05:16:21;;;;;;;;;;;;;;;;;;2543183;23;19997;-90
2023/03/05 05:17:21;;;;;;;42.33;24.73;;;;;;;;;;2546686;23;19908;-91
2023/03/05 05:18:23;;;;;;;;;;;;;;;;;;2560026;23;20019;-90
2023/03/05 05:19:24;;;;;;;42.60;23.80;;;;;;;;;;2559507;23;20333;-90
2023/03/05 05:20:24;;;;;;;;;;;;;;;;;;2555139;23;19993;-91
2023/03/05 05:21:24;;;;;;;39.00;24.67;;;;;;;;;;2543221;23;19927;-90
2023/03/05 05:22:27;;;;;;;37.67;24.23;;;;;;;;;;2536263;23;19997;-90
2023/03/05 05:23:27;;;;;;;44.00;25.40;;;;;;;;;;2543426;23;20000;-91
2023/03/05 05:24:29;;;;;;;;;;;;;;;;;;2543733;23;20068;-91
2023/03/05 05:25:29;;;;;;;38.20;23.70;;;;;;;;;;2559991;23;20266;-91
2023/03/05 05:26:30;;;;;;;;;;;;;;;;;;2544018;23;20343;-91
2023/03/05 05:27:30;;;;;;;39.97;23.67;;;;;;;;;;2547423;23;19915;-90
2023/03/05 05:28:31;;;;;;;40.78;25.15;;;;;;;;;;2543479;23;19989;-90
2023/03/05 05:29:32;;;;;;;42.90;26.27;;;;;;;;;;2531135;23;19998;-90
2023/03/05 05:30:32;;;;;;;;;;;;;;;;;;2556198;23;20001;-91
2023/03/05 05:31:33;;;;;;;41.57;26.33;;;;;;;;;;2549008;23;19944;-91
2023/03/05 05:32:34;;;;;;;40.33;25.73;;;;;;;;;;2571451;23;19990;-92
2023/03/05 05:33:36;;;;;;;44.95;27.15;;;;;;;;;;2561746;23;20008;-92
2023/03/05 05:34:36;;;;;;;39.47;23.70;;;;;;;;;;2557043;23;20270;-90
2023/03/05 05:35:38;;;;;;;;;;;;;;;;;;2544270;23;19993;-90
2023/03/05 05:36:38;;;;;;;39.03;22.08;;;;;;;;;;2543531;23;19904;-89
2023/03/05 05:37:38;;;;;;;37.03;20.80;;;;;;;;;;2555729;23;20491;-89
2023/03/05 05:38:41;;;;;;;;;;;;;;;;;;2555912;23;20001;-90
2023/03/05 05:39:41;;;;;;;33.25;21.30;;;;;;;;;;2543484;23;19937;-90
2023/03/05 05:40:42;;;;;;;;;;;;;;;;;;2543572;23;20005;-90
2023/03/05 05:41:42;;;;;;;32.37;19.00;;;;;;;;;;2559784;23;20361;-92
2023/03/05 05:42:43;;;;;;;;;;;;;;;;;;2556133;23;20024;-90
2023/03/05 05:43:44;;;;;;;32.08;19.85;;;;;;;;;;2542761;23;19911;-89
2023/03/05 05:44:46;;;;;;;35.70;21.25;;;;;;;;;;2554989;23;20012;-88
2023/03/05 05:45:46;;;;;;;31.65;21.10;;;;;;;;;;2544015;23;20020;-90
2023/03/05 05:46:47;;;;;;;;;;;;;;;;;;2555671;23;20444;-92
2023/03/05 05:47:47;;;;;;;34.50;21.33;;;;;;;;;;2542733;23;19983;-91
2023/03/05 05:48:50;;;;;;;;;;;;;;;;;;2555634;23;20410;-90
2023/03/05 05:49:51;;;;;;;35.28;22.70;;;;;;;;;;2543441;23;19908;-90
2023/03/05 05:50:51;;;;;;;;;;;;;;;;;;2555607;23;20008;-89
2023/03/05 05:51:51;;;;;;;40.30;25.08;;;;;;;;;;2559871;23;19930;-90
2023/03/05 05:52:52;;;;;;;37.83;25.52;;;;;;;;;;2555146;23;20480;-89
2023/03/05 05:53:52;;;;;;;;;;;;;;;;;;2544697;23;20001;-89
2023/03/05 05:54:52;;;;;;;42.45;23.17;;;;;;;;;;2544194;23;19905;-89
2023/03/05 05:55:53;;;;;;;;;;;;;;;;;;2556031;23;20056;-90
2023/03/05 05:56:53;;;;;;;35.78;22.88;;;;;;;;;;2542597;23;19911;-90
2023/03/05 05:57:54;;;;;;;38.33;24.42;;;;;;;;;;2542888;23;20031;-90
2023/03/05 05:58:54;;;;;;;;;;;;;;;;;;2543356;23;20529;-90
2023/03/05 05:59:54;;;;;;;38.42;23.63;;;;;;;;;;2119920;23;10001478;-95
2023/03/05 06:00:55;;;;;;;;;;;;;;;;;;2545826;23;20005;-94
2023/03/05 06:01:55;;;;;;;38.43;21.70;;;;;;;;;;2533230;23;19909;-94
2023/03/05 06:02:56;;;;;;;37.15;22.60;;;;;;;;;;2546756;23;20013;-95
2023/03/05 06:04:36;;;;;;;34.78;21.65;;;;;;;;;;2549682;23;20064;-95
2023/03/05 06:05:37;;;;;;;35.75;21.85;;;;;;;;;;2553366;23;19989;-96
2023/03/05 06:06:37;;;;;;;;;;;;;;;;;;2546184;23;19998;-96
2023/03/05 06:07:42;;;;;;;37.13;23.27;;;;;;;;;;2546256;23;19911;-96
2023/03/05 06:08:42;;;;;;;36.28;21.35;;;;;;;;;;2559597;23;19997;-90
2023/03/05 06:09:43;;;;;;;;;;;;;;;;;;2561356;23;19993;-91
2023/03/05 06:11:10;;;;;;;33.05;20.33;;;;;;;;;;2119637;23;10251398;-91
2023/03/05 06:12:10;;;;;;;37.85;23.50;;;;;;;;;;2129395;23;10003137;-91
2023/03/05 06:15:10;;;;;;;43.83;25.25;;;;;;;;;;2540062;23;19914;-91
2023/03/05 06:17:36;;;;;;;47.78;26.17;;;;;;;;;;2547987;23;20446;-90
2023/03/05 06:18:37;;;;;;;;;;;;;;;;;;2543641;23;20028;-92
2023/03/05 06:19:37;;;;;;;53.28;29.88;;;;;;;;;;2113778;23;10191051;-89
2023/03/05 06:20:38;;;;;;;;;;;;;;;;;;2543587;23;20021;-90
2023/03/05 06:21:39;;;;;;;59.33;32.77;;;;;;;;;;2548573;23;19908;-89
2023/03/05 06:22:39;;;;;;;56.92;30.27;;;;;;;;;;2559822;23;20403;-91